Terminal Aerodrome Forecast
Issued by NWS

Home | Current Version | Previous Version | Text Only | Print | Product List | Glossary Off
Versions: 1 2 3 4 5 6 7 8 9 10 11 12 13

000
FTUS43 KICT 071124
TAFCNU
TAF
KCNU 071124Z 0712/0812 21012KT P6SM SCT200
     FM071500 28011KT P6SM BKN200
     FM072000 31021G29KT P6SM SCT200
     FM080600 31016G24KT P6SM -SN VCSH BKN120=

USA.gov is the U.S. government's official web portal to all federal, state and local government web resources and services.